sensor_id;sensor_type;location;lat;lon;timestamp;P1;durP1;ratioP1;P2;durP2;ratioP2
83684;SDS011;73666;51.304;5.776;2024-02-26T00:03:48;3.15;;;1.15;;
83684;SDS011;73666;51.304;5.776;2024-02-26T00:08:49;1.95;;;0.80;;
83684;SDS011;73666;51.304;5.776;2024-02-26T00:13:49;2.17;;;1.27;;
83684;SDS011;73666;51.304;5.776;2024-02-26T00:18:50;1.35;;;0.98;;
83684;SDS011;73666;51.304;5.776;2024-02-26T00:23:52;2.55;;;1.20;;
83684;SDS011;73666;51.304;5.776;2024-02-26T00:28:53;1.70;;;1.10;;
83684;SDS011;73666;51.304;5.776;2024-02-26T00:33:54;1.60;;;1.20;;
83684;SDS011;73666;51.304;5.776;2024-02-26T00:38:55;1.50;;;1.08;;
83684;SDS011;73666;51.304;5.776;2024-02-26T00:43:57;3.33;;;1.20;;
83684;SDS011;73666;51.304;5.776;2024-02-26T00:48:57;2.42;;;1.35;;
83684;SDS011;73666;51.304;5.776;2024-02-26T00:53:58;4.82;;;1.00;;
83684;SDS011;73666;51.304;5.776;2024-02-26T00:58:59;2.95;;;1.15;;
83684;SDS011;73666;51.304;5.776;2024-02-26T01:04:00;3.47;;;1.42;;
83684;SDS011;73666;51.304;5.776;2024-02-26T01:09:01;2.70;;;1.67;;
83684;SDS011;73666;51.304;5.776;2024-02-26T01:14:01;2.95;;;1.50;;
83684;SDS011;73666;51.304;5.776;2024-02-26T01:19:03;4.25;;;1.50;;
83684;SDS011;73666;51.304;5.776;2024-02-26T01:24:04;2.60;;;1.35;;
83684;SDS011;73666;51.304;5.776;2024-02-26T01:29:05;4.45;;;1.50;;
83684;SDS011;73666;51.304;5.776;2024-02-26T01:34:07;3.88;;;1.33;;
83684;SDS011;73666;51.304;5.776;2024-02-26T01:39:08;3.08;;;1.70;;
83684;SDS011;73666;51.304;5.776;2024-02-26T01:44:12;2.55;;;1.70;;
83684;SDS011;73666;51.304;5.776;2024-02-26T01:49:14;3.10;;;1.90;;
83684;SDS011;73666;51.304;5.776;2024-02-26T01:54:16;4.40;;;1.80;;
83684;SDS011;73666;51.304;5.776;2024-02-26T01:59:17;3.03;;;2.08;;
83684;SDS011;73666;51.304;5.776;2024-02-26T02:04:17;7.38;;;2.03;;
83684;SDS011;73666;51.304;5.776;2024-02-26T02:09:18;2.03;;;1.20;;
83684;SDS011;73666;51.304;5.776;2024-02-26T02:14:19;2.13;;;1.73;;
83684;SDS011;73666;51.304;5.776;2024-02-26T02:19:20;4.78;;;2.70;;
83684;SDS011;73666;51.304;5.776;2024-02-26T02:24:21;5.53;;;2.85;;
83684;SDS011;73666;51.304;5.776;2024-02-26T02:29:22;6.05;;;2.88;;
83684;SDS011;73666;51.304;5.776;2024-02-26T02:34:23;6.97;;;3.38;;
83684;SDS011;73666;51.304;5.776;2024-02-26T02:39:24;4.13;;;2.83;;
83684;SDS011;73666;51.304;5.776;2024-02-26T02:44:25;6.97;;;3.25;;
83684;SDS011;73666;51.304;5.776;2024-02-26T02:49:26;4.82;;;2.67;;
83684;SDS011;73666;51.304;5.776;2024-02-26T02:54:26;6.88;;;3.80;;
83684;SDS011;73666;51.304;5.776;2024-02-26T02:59:27;6.30;;;3.47;;
83684;SDS011;73666;51.304;5.776;2024-02-26T03:04:28;6.35;;;3.67;;
83684;SDS011;73666;51.304;5.776;2024-02-26T03:09:29;6.15;;;3.40;;
83684;SDS011;73666;51.304;5.776;2024-02-26T03:14:30;6.22;;;3.50;;
83684;SDS011;73666;51.304;5.776;2024-02-26T03:19:31;6.28;;;3.65;;
83684;SDS011;73666;51.304;5.776;2024-02-26T03:24:32;7.07;;;3.45;;
83684;SDS011;73666;51.304;5.776;2024-02-26T03:29:32;6.28;;;3.55;;
83684;SDS011;73666;51.304;5.776;2024-02-26T03:34:33;4.07;;;2.75;;
83684;SDS011;73666;51.304;5.776;2024-02-26T03:39:34;4.45;;;2.85;;
83684;SDS011;73666;51.304;5.776;2024-02-26T03:44:35;7.47;;;3.33;;
83684;SDS011;73666;51.304;5.776;2024-02-26T03:49:36;8.05;;;3.00;;
83684;SDS011;73666;51.304;5.776;2024-02-26T03:54:36;7.03;;;4.25;;
83684;SDS011;73666;51.304;5.776;2024-02-26T03:59:37;5.03;;;3.47;;
83684;SDS011;73666;51.304;5.776;2024-02-26T04:04:39;4.22;;;3.20;;
83684;SDS011;73666;51.304;5.776;2024-02-26T04:09:40;5.40;;;2.88;;
83684;SDS011;73666;51.304;5.776;2024-02-26T04:14:41;5.38;;;3.60;;
83684;SDS011;73666;51.304;5.776;2024-02-26T04:19:42;3.95;;;2.38;;
83684;SDS011;73666;51.304;5.776;2024-02-26T04:24:45;4.95;;;3.20;;
83684;SDS011;73666;51.304;5.776;2024-02-26T04:29:46;4.03;;;2.88;;
83684;SDS011;73666;51.304;5.776;2024-02-26T04:34:47;4.10;;;3.45;;
83684;SDS011;73666;51.304;5.776;2024-02-26T04:39:48;3.47;;;2.28;;
83684;SDS011;73666;51.304;5.776;2024-02-26T04:44:48;5.20;;;3.50;;
83684;SDS011;73666;51.304;5.776;2024-02-26T04:49:49;4.80;;;2.75;;
83684;SDS011;73666;51.304;5.776;2024-02-26T04:54:51;4.50;;;3.17;;
83684;SDS011;73666;51.304;5.776;2024-02-26T04:59:51;4.80;;;3.20;;
83684;SDS011;73666;51.304;5.776;2024-02-26T05:04:52;4.22;;;2.85;;
83684;SDS011;73666;51.304;5.776;2024-02-26T05:09:53;6.15;;;3.15;;
83684;SDS011;73666;51.304;5.776;2024-02-26T05:14:54;4.88;;;3.70;;
83684;SDS011;73666;51.304;5.776;2024-02-26T05:19:55;3.58;;;2.42;;
83684;SDS011;73666;51.304;5.776;2024-02-26T05:24:56;3.85;;;2.63;;
83684;SDS011;73666;51.304;5.776;2024-02-26T05:29:58;3.25;;;2.40;;
83684;SDS011;73666;51.304;5.776;2024-02-26T05:35:00;6.47;;;3.90;;
83684;SDS011;73666;51.304;5.776;2024-02-26T05:40:01;3.88;;;3.40;;
83684;SDS011;73666;51.304;5.776;2024-02-26T05:45:04;2.88;;;1.75;;
83684;SDS011;73666;51.304;5.776;2024-02-26T05:50:06;4.32;;;3.13;;
83684;SDS011;73666;51.304;5.776;2024-02-26T05:55:07;3.72;;;2.90;;
83684;SDS011;73666;51.304;5.776;2024-02-26T06:00:10;4.13;;;2.75;;
83684;SDS011;73666;51.304;5.776;2024-02-26T06:05:12;3.35;;;2.75;;
83684;SDS011;73666;51.304;5.776;2024-02-26T06:10:13;5.60;;;2.80;;
83684;SDS011;73666;51.304;5.776;2024-02-26T06:15:20;4.50;;;2.78;;
83684;SDS011;73666;51.304;5.776;2024-02-26T06:20:22;4.50;;;2.83;;
83684;SDS011;73666;51.304;5.776;2024-02-26T06:25:22;8.05;;;2.70;;
83684;SDS011;73666;51.304;5.776;2024-02-26T06:30:23;3.45;;;2.65;;
83684;SDS011;73666;51.304;5.776;2024-02-26T06:35:24;3.03;;;2.42;;
83684;SDS011;73666;51.304;5.776;2024-02-26T06:40:25;4.13;;;3.10;;
83684;SDS011;73666;51.304;5.776;2024-02-26T06:45:26;3.60;;;2.13;;
83684;SDS011;73666;51.304;5.776;2024-02-26T06:50:28;2.80;;;1.80;;
83684;SDS011;73666;51.304;5.776;2024-02-26T06:55:29;3.88;;;2.83;;
83684;SDS011;73666;51.304;5.776;2024-02-26T07:00:30;4.35;;;2.50;;
83684;SDS011;73666;51.304;5.776;2024-02-26T07:05:31;3.45;;;2.60;;
83684;SDS011;73666;51.304;5.776;2024-02-26T07:10:32;3.97;;;2.90;;
83684;SDS011;73666;51.304;5.776;2024-02-26T07:15:33;3.10;;;2.10;;
83684;SDS011;73666;51.304;5.776;2024-02-26T07:20:33;4.40;;;3.25;;
83684;SDS011;73666;51.304;5.776;2024-02-26T07:25:34;6.30;;;3.70;;
83684;SDS011;73666;51.304;5.776;2024-02-26T07:30:35;4.10;;;2.60;;
83684;SDS011;73666;51.304;5.776;2024-02-26T07:35:36;5.38;;;3.25;;
83684;SDS011;73666;51.304;5.776;2024-02-26T07:40:39;6.22;;;3.65;;
83684;SDS011;73666;51.304;5.776;2024-02-26T07:45:40;4.38;;;2.90;;
83684;SDS011;73666;51.304;5.776;2024-02-26T07:50:41;4.88;;;3.85;;
83684;SDS011;73666;51.304;5.776;2024-02-26T07:55:44;3.83;;;3.28;;
83684;SDS011;73666;51.304;5.776;2024-02-26T08:00:45;8.88;;;6.57;;
83684;SDS011;73666;51.304;5.776;2024-02-26T08:05:46;8.27;;;3.72;;
83684;SDS011;73666;51.304;5.776;2024-02-26T08:10:47;6.85;;;3.95;;
83684;SDS011;73666;51.304;5.776;2024-02-26T08:15:48;4.90;;;3.65;;
83684;SDS011;73666;51.304;5.776;2024-02-26T08:20:50;8.88;;;5.80;;
83684;SDS011;73666;51.304;5.776;2024-02-26T08:25:51;5.50;;;3.38;;
83684;SDS011;73666;51.304;5.776;2024-02-26T08:30:54;12.45;;;7.43;;
83684;SDS011;73666;51.304;5.776;2024-02-26T08:35:55;3.90;;;2.97;;
83684;SDS011;73666;51.304;5.776;2024-02-26T08:40:56;5.90;;;3.20;;
83684;SDS011;73666;51.304;5.776;2024-02-26T08:45:57;3.38;;;2.60;;
83684;SDS011;73666;51.304;5.776;2024-02-26T08:50:57;2.97;;;2.33;;
83684;SDS011;73666;51.304;5.776;2024-02-26T08:55:58;4.68;;;2.95;;
83684;SDS011;73666;51.304;5.776;2024-02-26T09:00:59;6.35;;;3.85;;
83684;SDS011;73666;51.304;5.776;2024-02-26T09:06:01;2.90;;;2.42;;
83684;SDS011;73666;51.304;5.776;2024-02-26T09:11:02;4.35;;;2.97;;
83684;SDS011;73666;51.304;5.776;2024-02-26T09:16:05;2.85;;;2.22;;
83684;SDS011;73666;51.304;5.776;2024-02-26T09:21:06;3.72;;;2.30;;
83684;SDS011;73666;51.304;5.776;2024-02-26T09:26:07;4.32;;;2.88;;
83684;SDS011;73666;51.304;5.776;2024-02-26T09:31:09;4.03;;;2.55;;
83684;SDS011;73666;51.304;5.776;2024-02-26T09:36:10;3.53;;;3.00;;
83684;SDS011;73666;51.304;5.776;2024-02-26T09:41:14;4.70;;;2.95;;
83684;SDS011;73666;51.304;5.776;2024-02-26T09:46:16;4.10;;;3.67;;
83684;SDS011;73666;51.304;5.776;2024-02-26T09:51:20;5.07;;;2.20;;
83684;SDS011;73666;51.304;5.776;2024-02-26T09:56:25;2.83;;;2.25;;
83684;SDS011;73666;51.304;5.776;2024-02-26T10:01:27;3.45;;;2.90;;
83684;SDS011;73666;51.304;5.776;2024-02-26T10:06:32;4.95;;;2.95;;
83684;SDS011;73666;51.304;5.776;2024-02-26T10:11:32;7.28;;;2.33;;
83684;SDS011;73666;51.304;5.776;2024-02-26T10:16:34;3.83;;;2.95;;
83684;SDS011;73666;51.304;5.776;2024-02-26T10:21:35;5.40;;;2.35;;
83684;SDS011;73666;51.304;5.776;2024-02-26T10:26:36;4.22;;;3.17;;
83684;SDS011;73666;51.304;5.776;2024-02-26T10:31:41;4.13;;;2.92;;
83684;SDS011;73666;51.304;5.776;2024-02-26T10:36:42;5.50;;;3.50;;
83684;SDS011;73666;51.304;5.776;2024-02-26T10:41:44;5.88;;;3.97;;
83684;SDS011;73666;51.304;5.776;2024-02-26T10:46:47;3.97;;;2.72;;
83684;SDS011;73666;51.304;5.776;2024-02-26T10:51:56;2.47;;;2.17;;
83684;SDS011;73666;51.304;5.776;2024-02-26T10:56:59;4.40;;;3.40;;
83684;SDS011;73666;51.304;5.776;2024-02-26T11:02:01;6.63;;;4.18;;
83684;SDS011;73666;51.304;5.776;2024-02-26T11:07:03;6.15;;;3.75;;
83684;SDS011;73666;51.304;5.776;2024-02-26T11:12:04;8.85;;;3.95;;
83684;SDS011;73666;51.304;5.776;2024-02-26T11:17:10;5.85;;;4.40;;
83684;SDS011;73666;51.304;5.776;2024-02-26T11:22:12;3.20;;;2.58;;
83684;SDS011;73666;51.304;5.776;2024-02-26T11:27:13;5.60;;;3.80;;
83684;SDS011;73666;51.304;5.776;2024-02-26T11:32:17;5.22;;;3.35;;
83684;SDS011;73666;51.304;5.776;2024-02-26T11:37:18;5.60;;;4.40;;
83684;SDS011;73666;51.304;5.776;2024-02-26T11:42:23;9.75;;;5.28;;
83684;SDS011;73666;51.304;5.776;2024-02-26T11:47:30;6.93;;;4.88;;
83684;SDS011;73666;51.304;5.776;2024-02-26T11:52:34;5.30;;;3.80;;
83684;SDS011;73666;51.304;5.776;2024-02-26T11:57:39;7.13;;;5.07;;
83684;SDS011;73666;51.304;5.776;2024-02-26T12:07:49;8.00;;;5.35;;
83684;SDS011;73666;51.304;5.776;2024-02-26T12:12:54;8.68;;;5.28;;
83684;SDS011;73666;51.304;5.776;2024-02-26T12:17:58;5.35;;;4.07;;
83684;SDS011;73666;51.304;5.776;2024-02-26T12:23:01;8.40;;;4.75;;
83684;SDS011;73666;51.304;5.776;2024-02-26T12:28:04;6.75;;;4.55;;
83684;SDS011;73666;51.304;5.776;2024-02-26T12:33:05;8.60;;;4.82;;
83684;SDS011;73666;51.304;5.776;2024-02-26T12:38:08;6.43;;;4.32;;
83684;SDS011;73666;51.304;5.776;2024-02-26T12:43:09;6.43;;;3.65;;
83684;SDS011;73666;51.304;5.776;2024-02-26T12:48:13;7.30;;;5.15;;
83684;SDS011;73666;51.304;5.776;2024-02-26T12:53:14;7.65;;;5.05;;
83684;SDS011;73666;51.304;5.776;2024-02-26T12:58:15;7.82;;;5.13;;
83684;SDS011;73666;51.304;5.776;2024-02-26T13:03:16;12.15;;;6.68;;
83684;SDS011;73666;51.304;5.776;2024-02-26T13:08:17;9.77;;;6.65;;
83684;SDS011;73666;51.304;5.776;2024-02-26T13:13:19;14.15;;;8.85;;
83684;SDS011;73666;51.304;5.776;2024-02-26T13:18:20;13.25;;;8.32;;
83684;SDS011;73666;51.304;5.776;2024-02-26T13:23:21;13.57;;;6.80;;
83684;SDS011;73666;51.304;5.776;2024-02-26T13:28:21;11.40;;;7.90;;
83684;SDS011;73666;51.304;5.776;2024-02-26T13:33:24;11.77;;;7.80;;
83684;SDS011;73666;51.304;5.776;2024-02-26T13:38:27;10.88;;;6.95;;
83684;SDS011;73666;51.304;5.776;2024-02-26T13:43:30;11.80;;;7.47;;
83684;SDS011;73666;51.304;5.776;2024-02-26T13:48:31;7.28;;;3.70;;
83684;SDS011;73666;51.304;5.776;2024-02-26T13:53:33;11.20;;;5.50;;
83684;SDS011;73666;51.304;5.776;2024-02-26T13:58:33;9.35;;;5.00;;
83684;SDS011;73666;51.304;5.776;2024-02-26T14:03:34;13.93;;;6.22;;
83684;SDS011;73666;51.304;5.776;2024-02-26T14:08:35;11.50;;;6.45;;
83684;SDS011;73666;51.304;5.776;2024-02-26T14:13:38;13.90;;;7.22;;
83684;SDS011;73666;51.304;5.776;2024-02-26T14:18:39;14.93;;;6.47;;
83684;SDS011;73666;51.304;5.776;2024-02-26T14:23:40;13.32;;;7.13;;
83684;SDS011;73666;51.304;5.776;2024-02-26T14:28:42;15.85;;;6.93;;
83684;SDS011;73666;51.304;5.776;2024-02-26T14:33:43;10.77;;;6.00;;
83684;SDS011;73666;51.304;5.776;2024-02-26T14:38:44;15.73;;;6.25;;
83684;SDS011;73666;51.304;5.776;2024-02-26T14:43:45;13.90;;;7.75;;
83684;SDS011;73666;51.304;5.776;2024-02-26T14:48:46;10.90;;;6.35;;
83684;SDS011;73666;51.304;5.776;2024-02-26T14:53:47;12.25;;;6.47;;
83684;SDS011;73666;51.304;5.776;2024-02-26T14:58:48;15.98;;;8.98;;
83684;SDS011;73666;51.304;5.776;2024-02-26T15:03:48;22.83;;;14.43;;
83684;SDS011;73666;51.304;5.776;2024-02-26T15:08:49;11.55;;;5.25;;
83684;SDS011;73666;51.304;5.776;2024-02-26T15:13:50;11.70;;;6.15;;
83684;SDS011;73666;51.304;5.776;2024-02-26T15:18:52;10.68;;;5.68;;
83684;SDS011;73666;51.304;5.776;2024-02-26T15:23:53;8.23;;;3.95;;
83684;SDS011;73666;51.304;5.776;2024-02-26T15:28:54;8.50;;;5.10;;
83684;SDS011;73666;51.304;5.776;2024-02-26T15:33:55;11.13;;;5.53;;
83684;SDS011;73666;51.304;5.776;2024-02-26T15:38:56;7.63;;;4.35;;
83684;SDS011;73666;51.304;5.776;2024-02-26T15:44:00;10.80;;;7.22;;
83684;SDS011;73666;51.304;5.776;2024-02-26T15:49:01;8.52;;;5.15;;
83684;SDS011;73666;51.304;5.776;2024-02-26T15:54:01;7.35;;;4.13;;
83684;SDS011;73666;51.304;5.776;2024-02-26T15:59:02;11.57;;;5.22;;
83684;SDS011;73666;51.304;5.776;2024-02-26T16:04:03;11.93;;;5.97;;
83684;SDS011;73666;51.304;5.776;2024-02-26T16:09:04;7.40;;;5.20;;
83684;SDS011;73666;51.304;5.776;2024-02-26T16:14:15;9.82;;;4.85;;
83684;SDS011;73666;51.304;5.776;2024-02-26T16:19:17;10.48;;;5.65;;
83684;SDS011;73666;51.304;5.776;2024-02-26T16:24:18;11.98;;;7.10;;
83684;SDS011;73666;51.304;5.776;2024-02-26T16:29:19;11.68;;;5.50;;
83684;SDS011;73666;51.304;5.776;2024-02-26T16:34:20;8.73;;;4.93;;
83684;SDS011;73666;51.304;5.776;2024-02-26T16:39:21;10.70;;;5.55;;
83684;SDS011;73666;51.304;5.776;2024-02-26T16:44:21;11.32;;;6.38;;
83684;SDS011;73666;51.304;5.776;2024-02-26T16:49:22;7.68;;;4.35;;
83684;SDS011;73666;51.304;5.776;2024-02-26T16:54:23;6.50;;;3.70;;
83684;SDS011;73666;51.304;5.776;2024-02-26T16:59:24;11.30;;;5.78;;
83684;SDS011;73666;51.304;5.776;2024-02-26T17:04:31;10.05;;;5.30;;
83684;SDS011;73666;51.304;5.776;2024-02-26T17:09:32;7.18;;;4.32;;
83684;SDS011;73666;51.304;5.776;2024-02-26T17:14:32;11.20;;;5.72;;
83684;SDS011;73666;51.304;5.776;2024-02-26T17:19:34;12.07;;;5.43;;
83684;SDS011;73666;51.304;5.776;2024-02-26T17:24:35;7.22;;;3.60;;
83684;SDS011;73666;51.304;5.776;2024-02-26T17:29:36;13.60;;;5.65;;
83684;SDS011;73666;51.304;5.776;2024-02-26T17:34:37;10.43;;;4.88;;
83684;SDS011;73666;51.304;5.776;2024-02-26T17:39:38;12.48;;;6.18;;
83684;SDS011;73666;51.304;5.776;2024-02-26T17:44:39;6.75;;;4.53;;
83684;SDS011;73666;51.304;5.776;2024-02-26T17:49:39;13.07;;;7.47;;
83684;SDS011;73666;51.304;5.776;2024-02-26T17:54:40;10.32;;;4.93;;
83684;SDS011;73666;51.304;5.776;2024-02-26T17:59:41;9.10;;;5.18;;
83684;SDS011;73666;51.304;5.776;2024-02-26T18:04:42;12.00;;;6.72;;
83684;SDS011;73666;51.304;5.776;2024-02-26T18:09:44;10.95;;;5.43;;
83684;SDS011;73666;51.304;5.776;2024-02-26T18:14:45;10.73;;;5.28;;
83684;SDS011;73666;51.304;5.776;2024-02-26T18:19:45;8.82;;;4.90;;
83684;SDS011;73666;51.304;5.776;2024-02-26T18:24:46;8.07;;;4.20;;
83684;SDS011;73666;51.304;5.776;2024-02-26T18:29:47;10.75;;;5.85;;
83684;SDS011;73666;51.304;5.776;2024-02-26T18:34:47;10.18;;;5.85;;
83684;SDS011;73666;51.304;5.776;2024-02-26T18:39:48;12.63;;;6.70;;
83684;SDS011;73666;51.304;5.776;2024-02-26T18:44:50;14.95;;;5.50;;
83684;SDS011;73666;51.304;5.776;2024-02-26T18:49:51;14.85;;;6.50;;
83684;SDS011;73666;51.304;5.776;2024-02-26T18:54:51;14.63;;;8.30;;
83684;SDS011;73666;51.304;5.776;2024-02-26T18:59:52;13.07;;;5.93;;
83684;SDS011;73666;51.304;5.776;2024-02-26T19:04:53;10.85;;;5.63;;
83684;SDS011;73666;51.304;5.776;2024-02-26T19:09:54;10.13;;;5.93;;
83684;SDS011;73666;51.304;5.776;2024-02-26T19:14:55;13.20;;;7.30;;
83684;SDS011;73666;51.304;5.776;2024-02-26T19:19:57;15.90;;;7.38;;
83684;SDS011;73666;51.304;5.776;2024-02-26T19:24:58;13.93;;;6.75;;
83684;SDS011;73666;51.304;5.776;2024-02-26T19:29:59;16.65;;;8.57;;
83684;SDS011;73666;51.304;5.776;2024-02-26T19:35:06;11.25;;;6.20;;
83684;SDS011;73666;51.304;5.776;2024-02-26T19:40:10;16.10;;;7.30;;
83684;SDS011;73666;51.304;5.776;2024-02-26T19:45:12;16.90;;;8.70;;
83684;SDS011;73666;51.304;5.776;2024-02-26T19:50:12;13.40;;;7.47;;
83684;SDS011;73666;51.304;5.776;2024-02-26T19:55:13;14.00;;;8.45;;
83684;SDS011;73666;51.304;5.776;2024-02-26T20:00:15;16.88;;;8.27;;
83684;SDS011;73666;51.304;5.776;2024-02-26T20:05:16;15.18;;;8.40;;
83684;SDS011;73666;51.304;5.776;2024-02-26T20:10:18;10.18;;;5.93;;
83684;SDS011;73666;51.304;5.776;2024-02-26T20:15:19;13.55;;;6.18;;
83684;SDS011;73666;51.304;5.776;2024-02-26T20:20:21;10.32;;;6.68;;
83684;SDS011;73666;51.304;5.776;2024-02-26T20:25:26;19.08;;;9.07;;
83684;SDS011;73666;51.304;5.776;2024-02-26T20:30:28;15.13;;;7.75;;
83684;SDS011;73666;51.304;5.776;2024-02-26T20:35:32;18.10;;;9.65;;
83684;SDS011;73666;51.304;5.776;2024-02-26T20:40:33;19.80;;;10.20;;
83684;SDS011;73666;51.304;5.776;2024-02-26T20:45:33;13.80;;;6.88;;
83684;SDS011;73666;51.304;5.776;2024-02-26T20:50:35;20.98;;;9.85;;
83684;SDS011;73666;51.304;5.776;2024-02-26T20:55:37;16.27;;;7.88;;
83684;SDS011;73666;51.304;5.776;2024-02-26T21:00:40;17.63;;;8.88;;
83684;SDS011;73666;51.304;5.776;2024-02-26T21:05:42;17.85;;;9.40;;
83684;SDS011;73666;51.304;5.776;2024-02-26T21:10:43;21.08;;;8.68;;
83684;SDS011;73666;51.304;5.776;2024-02-26T21:15:48;20.63;;;10.20;;
83684;SDS011;73666;51.304;5.776;2024-02-26T21:20:48;14.57;;;7.78;;
83684;SDS011;73666;51.304;5.776;2024-02-26T21:25:49;16.73;;;7.10;;
83684;SDS011;73666;51.304;5.776;2024-02-26T21:30:52;16.85;;;8.18;;
83684;SDS011;73666;51.304;5.776;2024-02-26T21:35:56;17.17;;;7.13;;
83684;SDS011;73666;51.304;5.776;2024-02-26T21:40:57;21.13;;;10.15;;
83684;SDS011;73666;51.304;5.776;2024-02-26T21:45:58;20.90;;;10.45;;
83684;SDS011;73666;51.304;5.776;2024-02-26T21:50:59;18.98;;;9.07;;
83684;SDS011;73666;51.304;5.776;2024-02-26T21:56:00;14.13;;;7.10;;
83684;SDS011;73666;51.304;5.776;2024-02-26T22:01:04;20.38;;;9.73;;
83684;SDS011;73666;51.304;5.776;2024-02-26T22:06:04;18.42;;;9.68;;
83684;SDS011;73666;51.304;5.776;2024-02-26T22:11:06;20.58;;;9.55;;
83684;SDS011;73666;51.304;5.776;2024-02-26T22:16:06;19.75;;;9.93;;
83684;SDS011;73666;51.304;5.776;2024-02-26T22:21:07;21.02;;;10.38;;
83684;SDS011;73666;51.304;5.776;2024-02-26T22:26:09;19.40;;;8.50;;
83684;SDS011;73666;51.304;5.776;2024-02-26T22:31:11;19.38;;;8.80;;
83684;SDS011;73666;51.304;5.776;2024-02-26T22:36:12;13.93;;;6.55;;
83684;SDS011;73666;51.304;5.776;2024-02-26T22:41:13;20.98;;;9.20;;
83684;SDS011;73666;51.304;5.776;2024-02-26T22:46:13;18.75;;;8.80;;
83684;SDS011;73666;51.304;5.776;2024-02-26T22:51:14;19.90;;;8.98;;
83684;SDS011;73666;51.304;5.776;2024-02-26T22:56:15;24.00;;;10.75;;
83684;SDS011;73666;51.304;5.776;2024-02-26T23:01:16;17.65;;;7.88;;
83684;SDS011;73666;51.304;5.776;2024-02-26T23:06:17;21.23;;;10.65;;
83684;SDS011;73666;51.304;5.776;2024-02-26T23:11:18;22.40;;;9.98;;
83684;SDS011;73666;51.304;5.776;2024-02-26T23:16:19;23.08;;;10.13;;
83684;SDS011;73666;51.304;5.776;2024-02-26T23:21:20;21.52;;;9.43;;
83684;SDS011;73666;51.304;5.776;2024-02-26T23:26:21;17.83;;;8.30;;
83684;SDS011;73666;51.304;5.776;2024-02-26T23:31:21;20.88;;;9.45;;
83684;SDS011;73666;51.304;5.776;2024-02-26T23:36:23;11.15;;;4.25;;
83684;SDS011;73666;51.304;5.776;2024-02-26T23:41:24;18.52;;;8.63;;
83684;SDS011;73666;51.304;5.776;2024-02-26T23:46:30;22.33;;;9.73;;
83684;SDS011;73666;51.304;5.776;2024-02-26T23:51:33;20.10;;;9.63;;
83684;SDS011;73666;51.304;5.776;2024-02-26T23:56:33;14.02;;;6.50;;
